Terminal Aerodrome Forecast
Issued by NWS

Home | Current Version | Previous Version | Text Only | Print | Product List | Glossary On
Versions: 1 2 3 4 5 6 7 8 9 10 11 12 13 14 15 16 17 18 19 20 21 22 23 24
000
FTUS41 KCAR 251737
TAFFVE
TAF
KFVE 251737Z 2518/2618 23009KT P6SM FEW035 SCT090
     FM252000 23009G16KT P6SM FEW090
     FM252200 23009KT P6SM SKC
     FM260300 24008KT P6SM FEW090 WS020/27035KT
     FM260800 26006KT P6SM FEW090=

USA.gov is the U.S. government's official web portal to all federal, state and local government web resources and services.